Time;durP1;ratioP1;P1;durP2;ratioP2;P2;SDS_P1;SDS_P2;PMS_P1;PMS_P2;Temp;Humidity;BMP_temperature;BMP_pressure;BME280_temperature;BME280_humidity;BME280_pressure;Samples;Min_cycle;Max_cycle;Signal;HPM_P1;HPM_P2
2023/02/25 00:00:33;;;;;;;31.77;4.63;;;;;;;3.79;97.47;100159.47;5135265;27;20054;-53
2023/02/25 00:03:01;;;;;;;31.13;4.63;;;;;;;3.90;97.36;100162.03;5135702;27;20043;-53
2023/02/25 00:05:29;;;;;;;34.03;5.35;;;;;;;3.89;96.89;100162.16;5135959;27;20043;-55
2023/02/25 00:07:57;;;;;;;34.78;5.43;;;;;;;3.92;96.76;100164.56;5136193;27;20043;-53
2023/02/25 00:10:24;;;;;;;28.88;4.75;;;;;;;3.94;97.48;100168.69;5135817;27;20051;-54
2023/02/25 00:12:51;;;;;;;29.17;4.57;;;;;;;3.88;97.19;100171.84;5135615;27;20455;-54
2023/02/25 00:15:18;;;;;;;35.20;5.22;;;;;;;3.96;97.68;100182.53;5135381;27;20047;-54
2023/02/25 00:17:45;;;;;;;23.73;5.13;;;;;;;3.94;97.10;100173.94;5135737;27;20047;-54
2023/02/25 00:20:12;;;;;;;30.60;4.53;;;;;;;3.98;97.27;100169.28;5135640;27;20046;-52
2023/02/25 00:22:39;;;;;;;22.10;4.50;;;;;;;3.87;97.48;100162.28;5135304;27;20051;-54
2023/02/25 00:25:07;;;;;;;28.63;4.43;;;;;;;3.82;97.26;100160.06;5135321;27;20039;-53
2023/02/25 00:27:35;;;;;;;35.03;4.78;;;;;;;3.80;97.48;100164.59;5134699;27;20054;-53
2023/02/25 00:30:04;;;;;;;24.30;4.30;;;;;;;3.82;97.38;100165.31;5135067;27;20101;-53
2023/02/25 00:32:31;;;;;;;27.05;4.80;;;;;;;3.85;97.62;100158.97;5135453;27;20039;-52
2023/02/25 00:34:57;;;;;;;32.90;4.65;;;;;;;3.96;96.22;100160.72;5135429;27;20040;-54
2023/02/25 00:37:24;;;;;;;21.17;4.43;;;;;;;3.90;96.14;100164.66;5134897;27;20035;-53
2023/02/25 00:39:51;;;;;;;21.02;3.90;;;;;;;3.85;96.58;100161.59;5135137;27;20064;-54
2023/02/25 00:42:18;;;;;;;23.45;4.47;;;;;;;3.81;96.72;100155.75;5134856;27;20051;-54
2023/02/25 00:44:47;;;;;;;21.08;4.15;;;;;;;3.75;97.06;100152.81;5134645;27;20039;-52
2023/02/25 00:47:17;;;;;;;26.00;4.45;;;;;;;3.81;96.25;100153.13;5135191;27;20051;-52
2023/02/25 00:49:46;;;;;;;34.35;4.75;;;;;;;3.75;95.77;100150.19;5135082;27;20080;-54
2023/02/25 00:52:14;;;;;;;24.42;4.20;;;;;;;3.74;96.02;100164.25;5134960;27;20100;-53
2023/02/25 00:54:41;;;;;;;25.92;4.38;;;;;;;3.68;96.33;100164.75;5134828;27;20046;-53
2023/02/25 00:57:07;;;;;;;21.42;4.20;;;;;;;3.63;95.67;100162.50;5134981;27;20054;-54
2023/02/25 00:59:34;;;;;;;20.08;3.67;;;;;;;3.60;96.10;100160.97;5134404;27;20078;-53
2023/02/25 01:02:01;;;;;;;23.98;3.83;;;;;;;3.53;95.68;100161.53;5134438;27;20378;-53
2023/02/25 01:04:28;;;;;;;22.83;3.67;;;;;;;3.58;95.84;100164.66;5134843;27;20051;-53
2023/02/25 01:06:55;;;;;;;31.15;3.78;;;;;;;3.56;95.65;100162.13;5134725;27;20484;-52
2023/02/25 01:09:22;;;;;;;27.35;3.60;;;;;;;3.58;95.67;100162.84;5134794;27;20058;-51
2023/02/25 01:11:49;;;;;;;23.90;3.80;;;;;;;3.62;95.92;100163.44;5098336;27;20047;-53
2023/02/25 01:14:19;;;;;;;25.92;3.30;;;;;;;3.76;95.52;100160.53;5112101;28;20071;-54
2023/02/25 01:16:47;;;;;;;15.27;2.90;;;;;;;3.63;94.89;100162.50;5112601;28;20036;-53
2023/02/25 01:19:20;;;;;;;22.40;3.20;;;;;;;3.62;95.79;100166.91;5113855;28;20039;-53
2023/02/25 01:21:50;;;;;;;22.50;3.33;;;;;;;3.63;95.30;100163.31;5134030;27;20104;-53
2023/02/25 01:24:21;;;;;;;26.45;3.25;;;;;;;3.50;95.94;100162.63;5134583;27;20120;-55
2023/02/25 01:26:51;;;;;;;22.58;3.15;;;;;;;3.50;96.36;100164.44;5134461;27;20554;-53
2023/02/25 01:29:22;;;;;;;21.23;2.95;;;;;;;3.55;94.91;100162.28;5134536;27;20047;-53
2023/02/25 01:31:52;;;;;;;25.50;3.15;;;;;;;3.56;95.55;100164.75;5134533;27;20039;-52
2023/02/25 01:34:19;;;;;;;24.77;3.42;;;;;;;3.58;95.41;100169.88;5134465;27;20487;-54
2023/02/25 01:36:46;;;;;;;26.52;3.35;;;;;;;3.59;95.38;100167.16;5134432;27;20047;-55
2023/02/25 01:39:15;;;;;;;28.50;3.20;;;;;;;3.63;95.54;100171.19;5134192;27;20062;-54
2023/02/25 01:41:45;;;;;;;18.23;3.20;;;;;;;3.64;95.32;100178.09;5134249;27;20112;-54
2023/02/25 01:44:15;;;;;;;32.67;3.17;;;;;;;3.63;94.54;100175.59;5134042;27;20043;-52
2023/02/25 01:46:46;;;;;;;26.27;3.15;;;;;;;3.57;94.24;100171.69;5134133;27;20039;-53
2023/02/25 01:49:20;;;;;;;26.95;2.78;;;;;;;3.60;94.10;100178.47;5134226;27;20070;-53
2023/02/25 01:51:50;;;;;;;18.52;3.38;;;;;;;3.59;94.50;100179.44;5134073;27;20054;-53
2023/02/25 01:54:19;;;;;;;24.08;4.25;;;;;;;3.54;95.00;100178.97;5133996;27;20484;-53
2023/02/25 01:56:51;;;;;;;19.40;3.03;;;;;;;3.51;94.79;100171.34;5134194;27;20122;-52
2023/02/25 01:59:21;;;;;;;21.83;2.95;;;;;;;3.54;95.25;100173.72;5133688;27;20438;-52
2023/02/25 02:01:48;;;;;;;20.95;3.35;;;;;;;3.58;95.10;100183.00;5133673;27;20051;-53
2023/02/25 02:04:17;;;;;;;30.45;3.08;;;;;;;3.65;94.96;100176.31;5133933;27;20100;-53
2023/02/25 02:06:47;;;;;;;24.38;3.25;;;;;;;3.75;94.64;100179.88;5134055;27;20047;-52
2023/02/25 02:09:19;;;;;;;22.48;3.40;;;;;;;3.61;93.51;100178.34;5134228;27;20051;-52
2023/02/25 02:11:45;;;;;;;27.27;3.63;;;;;;;3.55;94.25;100170.97;5133969;27;20476;-53
2023/02/25 02:14:17;;;;;;;24.42;3.30;;;;;;;3.62;93.92;100172.16;5133920;27;20043;-52
2023/02/25 02:17:13;;;;;;;22.95;2.70;;;;;;;3.54;93.94;100173.72;5133696;27;20445;-53
2023/02/25 02:20:11;;;;;;;28.52;3.78;;;;;;;3.57;94.21;100173.47;5133367;27;20079;-52
2023/02/25 02:22:48;;;;;;;23.58;3.38;;;;;;;3.44;94.31;100163.97;5133516;27;20047;-52
2023/02/25 02:25:50;;;;;;;23.60;3.60;;;;;;;3.44;94.85;100171.00;5133636;27;20042;-53
2023/02/25 02:28:48;;;;;;;24.90;3.72;;;;;;;3.55;94.38;100178.03;5133621;27;20047;-53
2023/02/25 02:31:54;;;;;;;21.77;3.58;;;;;;;3.61;93.80;100180.16;5133718;27;20043;-52
2023/02/25 02:34:39;;;;;;;39.92;4.22;;;;;;;3.57;94.68;100181.34;5133383;27;20045;-53
2023/02/25 02:37:30;;;;;;;19.05;3.08;;;;;;;3.55;93.96;100184.09;5133900;27;20039;-52
2023/02/25 02:40:24;;;;;;;23.85;3.33;;;;;;;3.52;94.40;100176.47;5133913;27;20061;-53
2023/02/25 02:43:31;;;;;;;23.38;3.83;;;;;;;3.53;94.28;100179.91;5133198;27;20055;-53
2023/02/25 02:46:17;;;;;;;31.88;4.22;;;;;;;3.56;94.82;100170.00;5133162;27;20552;-52
2023/02/25 02:48:51;;;;;;;22.65;3.28;;;;;;;3.60;95.21;100174.06;5133396;27;20057;-52
2023/02/25 02:51:25;;;;;;;25.13;3.60;;;;;;;3.63;94.69;100172.97;5136664;27;20066;-53
2023/02/25 02:53:56;;;;;;;35.55;3.90;;;;;;;3.53;95.25;100170.28;5137123;27;20517;-52
2023/02/25 02:56:25;;;;;;;25.00;3.78;;;;;;;3.56;93.85;100169.19;5137414;27;20481;-53
2023/02/25 02:58:58;;;;;;;24.42;3.45;;;;;;;3.52;94.55;100179.09;5137314;27;20043;-53
2023/02/25 03:01:30;;;;;;;26.58;5.05;;;;;;;3.55;94.89;100172.78;5136413;27;20043;-53
2023/02/25 03:04:02;;;;;;;29.08;4.10;;;;;;;3.50;94.77;100172.31;5136698;27;20039;-53
2023/02/25 03:06:34;;;;;;;24.00;4.00;;;;;;;3.49;95.02;100175.88;5136899;27;20039;-53
2023/02/25 03:09:07;;;;;;;24.40;3.90;;;;;;;3.56;94.55;100174.44;5136846;27;20035;-53
2023/02/25 03:11:34;;;;;;;32.28;4.10;;;;;;;3.64;94.04;100183.34;5114804;27;20035;-53
2023/02/25 03:14:01;;;;;;;23.65;4.13;;;;;;;3.53;94.04;100175.50;5136660;27;20039;-53
2023/02/25 03:16:37;;;;;;;30.15;3.88;;;;;;;3.48;94.38;100175.03;5136532;27;20373;-53
2023/02/25 03:19:10;;;;;;;21.38;3.08;;;;;;;3.47;95.00;100178.59;5136845;27;20043;-53
2023/02/25 03:21:42;;;;;;;28.30;3.67;;;;;;;3.56;93.67;100182.28;5136781;27;20074;-53
2023/02/25 03:24:16;;;;;;;39.00;3.83;;;;;;;3.58;94.22;100188.25;5135655;27;20122;-53
2023/02/25 03:26:43;;;;;;;30.63;4.65;;;;;;;3.65;94.45;100192.88;5136539;27;20434;-53
2023/02/25 03:29:18;;;;;;;30.35;3.65;;;;;;;3.74;94.13;100188.69;5136282;27;20035;-53
2023/02/25 03:31:55;;;;;;;30.25;3.78;;;;;;;3.68;93.75;100189.19;5136701;27;20139;-52
2023/02/25 03:34:28;;;;;;;27.40;3.72;;;;;;;3.70;93.32;100189.91;5136668;27;20122;-54
2023/02/25 03:37:01;;;;;;;28.40;4.03;;;;;;;3.68;93.54;100196.22;5136632;27;20062;-53
2023/02/25 03:39:39;;;;;;;34.72;3.45;;;;;;;3.59;93.06;100187.31;5136693;27;20488;-53
2023/02/25 03:42:11;;;;;;;18.05;3.05;;;;;;;3.67;92.99;100194.56;5136395;27;20048;-51
2023/02/25 03:44:47;;;;;;;22.17;3.35;;;;;;;3.62;93.29;100198.38;5136226;27;20082;-53
2023/02/25 03:47:15;;;;;;;20.67;3.42;;;;;;;3.62;93.72;100201.00;5136235;27;20063;-52
2023/02/25 03:49:50;;;;;;;22.35;3.30;;;;;;;3.64;94.00;100199.09;5136459;27;20047;-53
2023/02/25 03:52:21;;;;;;;20.50;3.50;;;;;;;3.60;93.27;100196.81;5136385;27;20051;-53
2023/02/25 03:54:51;;;;;;;26.95;3.47;;;;;;;3.61;93.79;100201.94;5136448;27;20051;-53
2023/02/25 03:57:23;;;;;;;28.05;3.42;;;;;;;3.58;93.89;100201.38;5135019;27;20050;-51
2023/02/25 03:59:55;;;;;;;23.20;3.00;;;;;;;3.66;93.14;100201.59;5135199;27;20061;-53
2023/02/25 04:02:27;;;;;;;29.92;4.15;;;;;;;3.55;93.33;100194.59;5135764;27;20485;-52
2023/02/25 04:04:54;;;;;;;19.55;2.53;;;;;;;3.53;93.97;100199.13;5136103;27;20066;-53
2023/02/25 04:07:20;;;;;;;19.70;3.20;;;;;;;3.49;93.50;100204.72;5135698;27;20061;-53
2023/02/25 04:09:48;;;;;;;21.05;3.40;;;;;;;3.61;93.34;100201.94;5135905;27;20047;-53
2023/02/25 04:12:14;;;;;;;25.70;3.20;;;;;;;3.68;92.37;100199.69;5135832;27;20104;-52
2023/02/25 04:14:42;;;;;;;15.60;2.65;;;;;;;3.67;93.57;100205.88;5135700;27;20070;-50
2023/02/25 04:17:10;;;;;;;21.85;3.35;;;;;;;3.65;92.77;100215.66;5135648;27;20046;-53
2023/02/25 04:19:37;;;;;;;30.55;3.10;;;;;;;3.77;92.87;100206.81;5135442;27;20050;-53
2023/02/25 04:22:06;;;;;;;20.88;2.90;;;;;;;3.68;92.84;100215.44;5135709;27;20126;-53
2023/02/25 04:24:33;;;;;;;31.48;4.15;;;;;;;3.71;92.77;100224.81;5135691;27;20404;-53
2023/02/25 04:27:01;;;;;;;32.90;3.00;;;;;;;3.81;93.10;100231.03;5135568;27;20063;-54
2023/02/25 04:29:29;;;;;;;23.73;3.13;;;;;;;3.69;92.45;100227.56;5135170;27;20039;-53
2023/02/25 04:31:56;;;;;;;23.05;3.25;;;;;;;3.66;92.57;100225.22;5134282;27;20070;-53
2023/02/25 04:34:23;;;;;;;25.20;3.78;;;;;;;3.70;94.16;100225.81;5135509;27;20054;-52
2023/02/25 04:36:50;;;;;;;28.90;3.75;;;;;;;3.74;93.42;100224.59;5135600;27;20088;-53
2023/02/25 04:39:18;;;;;;;33.55;3.42;;;;;;;3.73;93.36;100220.28;5135293;27;20134;-55
2023/02/25 04:41:45;;;;;;;29.70;3.22;;;;;;;3.76;93.82;100218.25;5135206;27;20043;-51
2023/02/25 04:44:11;;;;;;;17.48;3.47;;;;;;;3.69;93.22;100219.69;5134618;27;20039;-53
2023/02/25 04:46:41;;;;;;;25.98;3.42;;;;;;;3.60;93.65;100221.28;5135019;27;20092;-53
2023/02/25 04:49:08;;;;;;;29.75;3.00;;;;;;;3.68;93.73;100220.66;5135218;27;20488;-52
2023/02/25 04:51:38;;;;;;;25.73;3.30;;;;;;;3.70;94.27;100215.31;5134796;27;20400;-53
2023/02/25 04:54:05;;;;;;;28.73;3.15;;;;;;;3.80;93.52;100217.06;5135104;27;20047;-53
2023/02/25 04:56:48;;;;;;;18.20;3.47;;;;;;;3.73;92.82;100215.91;5135162;27;20065;-51
2023/02/25 04:59:15;;;;;;;29.38;3.63;;;;;;;3.81;92.42;100221.34;5134393;27;20043;-52
2023/02/25 05:01:42;;;;;;;32.85;3.55;;;;;;;3.79;92.00;100215.41;5134297;27;20043;-52
2023/02/25 05:04:09;;;;;;;25.80;3.45;;;;;;;3.78;92.93;100228.63;5116428;27;20043;-53
2023/02/25 05:06:35;;;;;;;27.23;3.08;;;;;;;3.67;93.42;100221.63;5134696;27;20035;-53
2023/02/25 05:09:02;;;;;;;29.17;3.92;;;;;;;3.78;93.53;100224.25;5134828;27;20564;-52
2023/02/25 05:11:29;;;;;;;21.30;3.83;;;;;;;3.69;93.17;100224.13;5131697;27;20043;-56
2023/02/25 05:13:57;;;;;;;24.48;3.33;;;;;;;3.70;93.07;100217.94;5129970;27;20043;-58
2023/02/25 05:16:24;;;;;;;25.25;3.05;;;;;;;3.73;93.64;100225.53;5133764;27;20488;-53
2023/02/25 05:18:51;;;;;;;26.20;3.28;;;;;;;3.63;93.54;100221.03;5134192;27;20043;-52
2023/02/25 05:21:21;;;;;;;29.75;3.38;;;;;;;3.75;94.29;100221.03;5134201;27;20082;-52
2023/02/25 05:23:50;;;;;;;24.75;3.10;;;;;;;3.68;93.21;100220.66;5134632;27;20075;-53
2023/02/25 05:26:20;;;;;;;24.02;3.15;;;;;;;3.62;93.54;100215.91;5134317;27;20039;-53
2023/02/25 05:28:49;;;;;;;24.35;3.17;;;;;;;3.67;93.85;100221.63;5134669;27;20154;-53
2023/02/25 05:31:16;;;;;;;20.17;3.38;;;;;;;3.70;93.55;100216.13;5134197;27;20035;-55
2023/02/25 05:33:43;;;;;;;25.50;3.22;;;;;;;3.64;93.54;100219.25;5134557;27;20377;-55
2023/02/25 05:36:13;;;;;;;19.58;2.95;;;;;;;3.65;93.26;100220.91;5134383;27;20100;-55
2023/02/25 05:38:40;;;;;;;25.55;3.33;;;;;;;3.84;92.60;100230.78;5134262;27;20035;-53
2023/02/25 05:41:08;;;;;;;25.05;3.00;;;;;;;3.76;94.05;100227.91;5133940;27;20047;-54
2023/02/25 05:43:36;;;;;;;30.20;3.47;;;;;;;3.74;93.25;100228.03;5133826;27;20051;-52
2023/02/25 05:46:04;;;;;;;25.88;2.85;;;;;;;3.77;94.20;100225.19;5133940;27;20081;-55
2023/02/25 05:48:31;;;;;;;23.63;3.20;;;;;;;3.75;94.03;100234.97;5134414;27;20045;-54
2023/02/25 05:51:01;;;;;;;22.65;2.97;;;;;;;3.80;92.65;100237.22;5134359;27;20096;-53
2023/02/25 05:53:28;;;;;;;33.90;3.80;;;;;;;3.77;92.86;100222.56;5134167;27;20046;-54
2023/02/25 05:55:55;;;;;;;24.17;2.78;;;;;;;3.76;92.56;100231.38;5134020;27;20051;-54
2023/02/25 05:58:22;;;;;;;21.27;3.30;;;;;;;3.74;92.73;100222.78;5134296;27;20047;-53
2023/02/25 06:00:49;;;;;;;30.88;2.97;;;;;;;3.67;92.35;100232.09;5132884;27;20121;-53
2023/02/25 06:03:16;;;;;;;34.28;3.97;;;;;;;3.72;93.35;100226.50;5134170;27;20036;-54
2023/02/25 06:05:42;;;;;;;33.28;3.33;;;;;;;3.65;92.57;100244.50;5134067;27;20039;-53
2023/02/25 06:08:11;;;;;;;21.52;2.92;;;;;;;3.72;92.54;100239.63;5134134;27;20043;-53
2023/02/25 06:10:39;;;;;;;20.80;2.80;;;;;;;3.64;92.62;100242.88;5133781;27;20496;-53
2023/02/25 06:13:08;;;;;;;26.58;2.92;;;;;;;3.76;92.43;100235.78;5133739;27;20043;-54
2023/02/25 06:15:39;;;;;;;37.75;3.63;;;;;;;3.64;92.85;100232.38;5134044;27;20043;-52
2023/02/25 06:18:06;;;;;;;30.70;3.75;;;;;;;3.62;93.16;100239.50;5133660;27;20391;-53
2023/02/25 06:20:34;;;;;;;27.38;2.95;;;;;;;3.67;93.27;100247.03;5133899;27;20100;-53
2023/02/25 06:23:01;;;;;;;25.42;2.97;;;;;;;3.59;93.01;100248.47;5133839;27;20039;-53
2023/02/25 06:25:30;;;;;;;22.25;2.90;;;;;;;3.67;93.04;100247.84;5135659;27;20457;-51
2023/02/25 06:27:59;;;;;;;25.08;3.05;;;;;;;3.54;92.98;100247.16;5137644;27;20065;-54
2023/02/25 06:30:27;;;;;;;25.70;3.58;;;;;;;3.45;93.38;100249.53;5137823;27;20043;-54
2023/02/25 06:32:54;;;;;;;34.15;4.85;;;;;;;3.56;93.49;100259.19;5137650;27;20400;-54
2023/02/25 06:35:22;;;;;;;15.43;2.38;;;;;;;3.67;92.95;100260.97;5137893;27;20070;-52
2023/02/25 06:37:54;;;;;;;19.58;3.20;;;;;;;3.62;92.65;100265.72;5137588;27;20067;-50
2023/02/25 06:40:21;;;;;;;;;;;;;;;3.56;93.38;100266.22;5137872;27;20430;-54
2023/02/25 06:42:48;;;;;;;26.63;3.35;;;;;;;3.60;93.05;100265.88;5137248;27;20014;-54
2023/02/25 06:45:15;;;;;;;25.05;3.40;;;;;;;3.65;92.41;100262.88;5137380;27;20082;-53
2023/02/25 06:47:42;;;;;;;34.75;4.13;;;;;;;3.66;92.96;100269.81;5137624;27;20043;-53
2023/02/25 06:50:09;;;;;;;27.00;3.30;;;;;;;3.70;92.47;100271.22;5136920;27;20110;-53
2023/02/25 06:52:35;;;;;;;21.60;2.95;;;;;;;3.70;92.46;100281.72;5137412;27;20434;-53
2023/02/25 06:55:05;;;;;;;20.20;3.20;;;;;;;3.66;91.82;100282.91;5137257;27;20051;-54
2023/02/25 06:57:33;;;;;;;23.45;2.72;;;;;;;3.81;91.93;100284.31;5137502;27;20076;-53
2023/02/25 07:00:00;;;;;;;41.15;4.15;;;;;;;3.72;92.08;100281.59;5136394;27;20372;-54
2023/02/25 07:02:27;;;;;;;22.63;3.00;;;;;;;3.70;91.89;100289.59;5137128;27;20082;-53
2023/02/25 07:04:53;;;;;;;26.00;3.30;;;;;;;3.63;92.16;100288.41;5137225;27;20047;-52
2023/02/25 07:07:21;;;;;;;25.40;3.20;;;;;;;3.59;92.07;100293.06;5133825;27;20400;-53
2023/02/25 07:09:47;;;;;;;25.58;3.47;;;;;;;3.80;92.43;100287.06;5136402;27;20047;-54
2023/02/25 07:12:14;;;;;;;26.80;2.70;;;;;;;3.71;91.95;100287.78;5134085;27;20488;-53
2023/02/25 07:14:41;;;;;;;20.15;3.25;;;;;;;3.77;91.74;100292.56;5123470;27;20438;-54
2023/02/25 07:17:08;;;;;;;31.77;4.40;;;;;;;3.80;91.57;100294.94;5136275;27;20438;-52
2023/02/25 07:19:35;;;;;;;25.30;3.22;;;;;;;3.88;91.97;100300.44;5135943;27;20039;-54
2023/02/25 07:22:02;;;;;;;30.02;3.20;;;;;;;3.82;91.24;100301.75;5136717;27;20122;-54
2023/02/25 07:24:29;;;;;;;26.65;3.97;;;;;;;3.83;91.29;100306.03;5136295;27;20035;-54
2023/02/25 07:26:56;;;;;;;22.65;3.28;;;;;;;3.85;91.33;100301.47;5136643;27;20075;-53
2023/02/25 07:29:22;;;;;;;27.33;3.65;;;;;;;3.84;90.90;100302.47;5136901;27;20039;-54
2023/02/25 07:31:49;;;;;;;23.83;2.83;;;;;;;3.98;92.01;100298.75;5136402;27;20115;-54
2023/02/25 07:34:15;;;;;;;26.70;3.63;;;;;;;3.95;90.40;100298.16;5136758;27;20096;-54
2023/02/25 07:36:42;;;;;;;26.63;3.35;;;;;;;3.99;90.44;100299.56;5136123;27;20043;-54
2023/02/25 07:39:10;;;;;;;30.42;3.72;;;;;;;4.08;90.26;100298.84;5136609;27;20043;-54
2023/02/25 07:41:37;;;;;;;30.30;4.20;;;;;;;4.07;89.92;100293.72;5136276;27;20504;-54
2023/02/25 07:44:05;;;;;;;33.00;3.65;;;;;;;4.10;90.42;100296.09;5136003;27;20039;-54
2023/02/25 07:46:32;;;;;;;26.77;3.53;;;;;;;4.05;90.46;100299.06;5136106;27;20126;-53
2023/02/25 07:48:59;;;;;;;25.85;3.83;;;;;;;4.24;88.71;100306.31;5136143;27;20057;-54
2023/02/25 07:51:26;;;;;;;31.35;3.92;;;;;;;4.17;89.31;100310.41;5136121;27;20043;-53
2023/02/25 07:53:56;;;;;;;33.58;3.42;;;;;;;4.21;90.09;100309.19;5136040;27;20552;-53
2023/02/25 07:56:25;;;;;;;26.55;3.53;;;;;;;4.30;89.56;100311.06;5136028;27;20074;-53
2023/02/25 07:58:52;;;;;;;23.05;3.03;;;;;;;4.16;88.88;100312.16;5135936;27;20066;-55
2023/02/25 08:01:24;;;;;;;24.00;3.30;;;;;;;4.28;89.52;100320.03;5135028;27;20075;-54
2023/02/25 08:03:53;;;;;;;29.08;4.15;;;;;;;4.26;89.87;100314.91;5135951;27;20130;-53
2023/02/25 08:06:21;;;;;;;31.50;3.58;;;;;;;4.20;89.19;100321.50;5136010;27;20051;-54
2023/02/25 08:08:51;;;;;;;27.00;3.47;;;;;;;4.30;88.97;100324.19;5135276;27;20434;-55
2023/02/25 08:11:19;;;;;;;28.77;3.47;;;;;;;4.38;89.88;100321.81;5135786;27;20088;-54
2023/02/25 08:13:46;;;;;;;22.05;3.72;;;;;;;4.36;89.36;100323.69;5135627;27;20096;-54
2023/02/25 08:16:15;;;;;;;32.88;4.18;;;;;;;4.28;87.91;100333.16;5135729;27;20484;-54
2023/02/25 08:18:42;;;;;;;24.27;3.10;;;;;;;4.21;88.73;100324.94;5135493;27;20488;-54
2023/02/25 08:21:10;;;;;;;27.48;4.03;;;;;;;4.22;88.92;100327.44;5135529;27;20039;-52
2023/02/25 08:23:37;;;;;;;27.67;3.70;;;;;;;4.10;89.60;100324.97;5135121;27;20446;-49
2023/02/25 08:26:04;;;;;;;35.22;3.90;;;;;;;4.08;91.77;100326.88;5135659;27;20072;-52
2023/02/25 08:28:32;;;;;;;23.60;3.47;;;;;;;4.07;91.67;100335.72;5135231;27;20100;-52
2023/02/25 08:31:02;;;;;;;27.92;3.55;;;;;;;4.11;91.62;100343.22;5135665;27;20051;-52
2023/02/25 08:33:29;;;;;;;38.20;3.72;;;;;;;4.02;92.08;100342.16;5135144;27;20543;-53
2023/02/25 08:36:05;;;;;;;27.60;3.72;;;;;;;3.98;93.16;100342.50;5135063;27;20066;-54
2023/02/25 08:38:32;;;;;;;25.92;3.40;;;;;;;3.92;94.16;100348.25;5131794;27;20084;-53
2023/02/25 08:40:59;;;;;;;25.83;3.45;;;;;;;3.78;94.17;100347.56;5133714;27;20492;-52
2023/02/25 08:43:26;;;;;;;27.20;3.22;;;;;;;3.67;94.40;100352.78;5134679;27;20450;-53
2023/02/25 08:45:54;;;;;;;27.58;3.30;;;;;;;3.61;94.65;100354.09;5134634;27;20066;-54
2023/02/25 08:48:21;;;;;;;24.50;3.35;;;;;;;3.68;97.39;100356.25;5132634;27;20042;-53
2023/02/25 08:50:48;;;;;;;17.05;2.65;;;;;;;3.55;96.70;100367.69;5122953;27;20048;-53
2023/02/25 08:53:14;;;;;;;32.33;3.22;;;;;;;3.54;97.85;100363.38;5114577;28;20051;-54
2023/02/25 08:55:41;;;;;;;23.27;3.15;;;;;;;3.46;98.52;100374.47;5113717;28;20040;-54
2023/02/25 08:58:08;;;;;;;17.20;2.88;;;;;;;3.54;97.73;100360.75;5114425;28;20062;-51
2023/02/25 09:00:35;;;;;;;27.08;3.30;;;;;;;3.67;98.25;100359.81;5111471;28;20036;-52
2023/02/25 09:03:02;;;;;;;23.15;3.60;;;;;;;3.80;99.06;100364.00;5114033;28;20043;-53
2023/02/25 09:05:29;;;;;;;26.65;3.50;;;;;;;3.96;97.68;100366.25;5113704;28;20055;-53
2023/02/25 09:07:57;;;;;;;22.92;2.83;;;;;;;3.88;96.91;100357.34;5114102;28;20044;-53
2023/02/25 09:10:24;;;;;;;20.80;2.88;;;;;;;3.89;97.38;100351.94;5113947;27;20048;-52
2023/02/25 09:12:52;;;;;;;19.58;3.45;;;;;;;3.86;98.63;100362.69;5107822;27;20047;-54
2023/02/25 09:15:20;;;;;;;16.85;2.97;;;;;;;4.02;97.18;100357.91;5115107;27;20039;-55
2023/02/25 09:17:47;;;;;;;24.77;3.22;;;;;;;4.26;95.69;100366.56;5134421;27;20134;-53
2023/02/25 09:20:16;;;;;;;22.02;3.47;;;;;;;4.42;95.50;100372.25;5133547;27;20039;-53
2023/02/25 09:22:43;;;;;;;29.35;3.25;;;;;;;4.52;94.57;100382.88;5134353;27;20126;-53
2023/02/25 09:25:10;;;;;;;26.20;3.65;;;;;;;4.55;94.74;100387.91;5133885;27;20043;-54
2023/02/25 09:27:37;;;;;;;25.17;3.50;;;;;;;4.69;94.86;100381.50;5134299;27;20429;-53
2023/02/25 09:30:04;;;;;;;30.27;3.97;;;;;;;4.61;93.37;100376.88;5134179;27;20051;-53
2023/02/25 09:32:30;;;;;;;28.23;3.22;;;;;;;4.69;93.58;100369.19;5133740;27;20059;-53
2023/02/25 09:35:06;;;;;;;31.10;3.35;;;;;;;4.78;92.61;100383.38;5134011;27;20084;-54
2023/02/25 09:37:33;;;;;;;25.40;4.45;;;;;;;4.76;94.15;100382.69;5134308;27;20043;-54
2023/02/25 09:40:00;;;;;;;42.75;4.45;;;;;;;4.73;93.93;100383.78;5102499;27;20150;-54
2023/02/25 09:42:43;;;;;;;26.00;3.85;;;;;;;4.80;94.20;100390.19;5112021;28;20062;-54
2023/02/25 09:45:16;;;;;;;22.10;3.95;;;;;;;5.05;93.90;100393.44;5112570;28;20155;-52
2023/02/25 09:47:49;;;;;;;26.27;3.35;;;;;;;5.22;91.86;100380.66;5112625;28;20093;-53
2023/02/25 09:50:23;;;;;;;25.65;4.15;;;;;;;5.21;89.90;100389.53;5121879;27;20046;-53
2023/02/25 09:53:20;;;;;;;25.20;3.53;;;;;;;5.15;90.26;100390.88;5132737;27;20365;-53
2023/02/25 09:55:51;;;;;;;20.70;3.28;;;;;;;5.14;90.92;100407.63;5100770;27;20092;-53
2023/02/25 09:58:41;;;;;;;28.25;4.65;;;;;;;5.22;89.98;100420.13;5111925;28;20416;-52
2023/02/25 10:04:00;;;;;;;29.70;4.00;;;;;;;5.40;87.99;100421.22;5070157;28;20393;-53
2023/02/25 10:06:46;;;;;;;25.45;3.83;;;;;;;5.41;88.09;100415.00;5063876;28;20051;-53
2023/02/25 10:09:27;;;;;;;28.52;4.18;;;;;;;5.14;87.75;100426.03;5067250;28;20055;-53
2023/02/25 10:12:24;;;;;;;19.02;3.72;;;;;;;4.91;91.80;100427.91;5061532;28;21153;-52
2023/02/25 10:15:04;;;;;;;27.48;5.10;;;;;;;4.73;92.21;100435.47;5054426;28;20037;-53
2023/02/25 10:17:54;;;;;;;25.42;6.38;;;;;;;4.33;91.99;100446.53;5048015;28;20051;-53
2023/02/25 10:21:00;;;;;;;27.55;7.35;;;;;;;4.25;95.93;100456.81;5062667;28;20130;-52
2023/02/25 10:26:35;;;;;;;15.68;4.53;;;;;;;3.35;97.93;100468.84;5109504;27;20387;-54
2023/02/25 10:29:06;;;;;;;16.98;5.40;;;;;;;3.16;99.58;100474.59;5106534;28;20051;-53
2023/02/25 10:31:34;;;;;;;17.90;6.50;;;;;;;2.93;100.00;100478.06;5107759;28;20055;-53
2023/02/25 10:34:18;;;;;;;14.70;5.90;;;;;;;2.83;100.00;100491.84;5096157;28;20042;-52
2023/02/25 10:36:53;;;;;;;13.77;6.22;;;;;;;2.73;100.00;100508.31;5090865;28;20043;-52
2023/02/25 10:39:20;;;;;;;15.88;6.97;;;;;;;2.70;100.00;100514.63;5094095;28;20131;-51
2023/02/25 10:41:48;;;;;;;16.70;7.05;;;;;;;2.65;100.00;100525.41;5109381;28;20048;-53
2023/02/25 10:44:15;;;;;;;16.50;4.80;;;;;;;2.38;100.00;100530.78;5105409;28;20139;-53
2023/02/25 10:46:52;;;;;;;13.82;3.22;;;;;;;2.34;100.00;100525.91;5108162;28;20040;-53
2023/02/25 10:49:24;;;;;;;10.00;2.75;;;;;;;2.15;100.00;100516.69;5102520;28;20444;-52
2023/02/25 10:51:57;;;;;;;;;;;;;;;2.14;100.00;100524.66;5102180;28;20127;-53
2023/02/25 10:54:26;;;;;;;9.52;2.50;;;;;;;2.20;100.00;100514.59;5088878;28;19921;-53
2023/02/25 10:56:54;;;;;;;6.13;2.30;;;;;;;2.12;100.00;100514.28;5100077;28;20047;-53
2023/02/25 10:59:26;;;;;;;10.60;2.60;;;;;;;2.23;100.00;100517.00;5109044;28;20047;-52
2023/02/25 11:01:59;;;;;;;6.97;2.50;;;;;;;2.39;100.00;100519.38;5104369;28;20040;-53
2023/02/25 11:04:35;;;;;;;11.38;2.40;;;;;;;2.66;100.00;100510.56;5108036;28;20055;-53
2023/02/25 11:07:25;;;;;;;15.90;3.13;;;;;;;2.93;100.00;100517.38;5096369;28;20127;-53
2023/02/25 11:10:14;;;;;;;9.25;2.50;;;;;;;3.16;99.90;100526.19;5090316;28;20048;-53
2023/02/25 11:12:46;;;;;;;7.75;2.42;;;;;;;3.36;99.36;100507.22;5082793;28;20048;-53
2023/02/25 11:18:18;;;;;;;10.18;2.30;;;;;;;9.73;71.46;100513.63;5040934;28;20408;-56
2023/02/25 11:20:55;;;;;;;7.05;2.40;;;;;;;12.23;60.77;100509.53;5045385;28;20057;-51
2023/02/25 11:23:31;;;;;;;9.20;2.88;;;;;;;13.53;52.91;100515.16;5041992;28;20045;-53
2023/02/25 11:25:58;;;;;;;9.52;2.65;;;;;;;14.47;51.47;100517.41;5048602;28;20037;-55
2023/02/25 11:28:36;;;;;;;10.02;3.63;;;;;;;14.77;48.66;100523.59;5045734;28;20123;-53
2023/02/25 11:31:08;;;;;;;12.02;3.03;;;;;;;12.67;55.23;100520.47;5046051;28;20052;-54
2023/02/25 11:33:39;;;;;;;11.55;3.63;;;;;;;14.85;49.58;100519.16;5044126;28;20038;-54
2023/02/25 11:36:06;;;;;;;10.00;3.60;;;;;;;16.10;47.16;100525.91;5035407;28;20550;-53
2023/02/25 11:38:36;;;;;;;12.23;3.58;;;;;;;16.38;44.82;100527.72;5038874;28;20055;-55
2023/02/25 11:41:12;;;;;;;14.30;4.32;;;;;;;15.81;44.96;100522.41;5037133;28;20053;-56
2023/02/25 11:43:41;;;;;;;15.23;5.00;;;;;;;16.08;43.27;100517.22;5045091;28;20495;-55
2023/02/25 11:46:18;;;;;;;14.30;4.80;;;;;;;13.70;48.22;100520.34;5033390;28;20506;-55
2023/02/25 11:49:09;;;;;;;14.25;5.22;;;;;;;13.60;52.89;100521.44;5029580;28;20132;-55